createdAt,value
2023-05-10T00:01:12.192Z,100833.97
2023-05-10T00:03:38.848Z,100836.19
2023-05-10T00:06:05.566Z,100831.06
2023-05-10T00:08:32.193Z,100823.56
2023-05-10T00:10:58.654Z,100811.78
2023-05-10T00:13:25.625Z,100831.97
2023-05-10T00:15:52.196Z,100825.06
2023-05-10T00:18:18.721Z,100815.53
2023-05-10T00:20:46.973Z,100815.63
2023-05-10T00:23:13.566Z,100813.22
2023-05-10T00:25:40.031Z,100808.19
2023-05-10T00:28:06.510Z,100801.81
2023-05-10T00:30:32.975Z,100801.34
2023-05-10T00:32:59.499Z,100796.03
2023-05-10T00:35:25.996Z,100798.75
2023-05-10T00:37:52.633Z,100802.31
2023-05-10T00:40:19.219Z,100808.09
2023-05-10T00:42:45.824Z,100805.03
2023-05-10T00:45:13.150Z,100793.63
2023-05-10T00:47:40.479Z,100799.75
2023-05-10T00:50:07.573Z,100798.19
2023-05-10T00:52:34.143Z,100799.16
2023-05-10T00:55:01.082Z,100799.06
2023-05-10T00:57:27.927Z,100800.03
2023-05-10T00:59:54.614Z,100798.28
2023-05-10T01:02:21.090Z,100801.97
2023-05-10T01:04:48.376Z,100793.25
2023-05-10T01:07:14.869Z,100787.25
2023-05-10T01:09:41.433Z,100788.84
2023-05-10T01:12:08.388Z,100783.94
2023-05-10T01:14:37.052Z,100793.88
2023-05-10T01:17:03.773Z,100787.13
2023-05-10T01:19:31.529Z,100785.41
2023-05-10T01:22:22.769Z,100782.22
2023-05-10T01:25:15.128Z,100779.81
2023-05-10T01:27:47.536Z,100779.06
2023-05-10T01:30:38.665Z,100777.97
2023-05-10T01:33:10.751Z,100781.16
2023-05-10T01:35:46.353Z,100792.91
2023-05-10T01:38:38.296Z,100784.22
2023-05-10T01:41:14.277Z,100780.03
2023-05-10T01:43:55.646Z,100773.41
2023-05-10T01:46:29.740Z,100778.19
2023-05-10T01:48:59.421Z,100768.41
2023-05-10T01:51:28.503Z,100768.78
2023-05-10T01:54:01.696Z,100772.59
2023-05-10T01:56:29.548Z,100775.50
2023-05-10T01:58:56.644Z,100769.63
2023-05-10T02:01:23.494Z,100765.47
2023-05-10T02:03:51.105Z,100764.84
2023-05-10T02:06:19.568Z,100761.16
2023-05-10T02:08:47.708Z,100758.09
2023-05-10T02:11:14.998Z,100760.91
2023-05-10T02:13:42.192Z,100767.63
2023-05-10T02:16:08.939Z,100762.25
2023-05-10T02:18:36.899Z,100764.22
2023-05-10T02:21:03.855Z,100755.41
2023-05-10T02:23:30.829Z,100767.03
2023-05-10T02:25:58.159Z,100753.41
2023-05-10T02:28:26.447Z,100760.03
2023-05-10T02:30:53.981Z,100755.50
2023-05-10T02:33:21.362Z,100762.81
2023-05-10T02:35:48.160Z,100749.50
2023-05-10T02:38:15.570Z,100755.75
2023-05-10T02:40:43.367Z,100751.44
2023-05-10T02:43:13.576Z,100758.06
2023-05-10T02:45:40.737Z,100758.28
2023-05-10T02:48:07.647Z,100759.03
2023-05-10T02:50:34.844Z,100750.09
2023-05-10T02:53:03.266Z,100756.47
2023-05-10T02:55:34.287Z,100758.53
2023-05-10T02:58:02.475Z,100767.59
2023-05-10T03:00:29.487Z,100764.28
2023-05-10T03:02:56.101Z,100758.00
2023-05-10T03:05:22.782Z,100759.38
2023-05-10T03:07:49.629Z,100763.91
2023-05-10T03:10:16.453Z,100758.53
2023-05-10T03:13:02.881Z,100759.22
2023-05-10T03:15:47.323Z,100767.31
2023-05-10T03:18:15.068Z,100767.53
2023-05-10T03:20:49.560Z,100763.16
2023-05-10T03:23:19.130Z,100767.53
2023-05-10T03:25:48.147Z,100756.41
2023-05-10T03:28:15.764Z,100759.63
2023-05-10T03:30:43.605Z,100754.59
2023-05-10T03:33:10.156Z,100760.69
2023-05-10T03:35:36.746Z,100757.91
2023-05-10T03:38:03.492Z,100759.63
2023-05-10T03:40:32.413Z,100759.16
2023-05-10T03:42:59.845Z,100756.81
2023-05-10T03:45:26.429Z,100763.72
2023-05-10T03:47:52.934Z,100753.78
2023-05-10T03:50:20.196Z,100756.38
2023-05-10T03:52:47.556Z,100757.84
2023-05-10T03:55:14.058Z,100755.53
2023-05-10T03:57:40.662Z,100754.44
2023-05-10T04:00:07.701Z,100757.84
2023-05-10T04:02:34.431Z,100756.00
2023-05-10T04:05:00.999Z,100762.75
2023-05-10T04:07:27.578Z,100760.78
2023-05-10T04:09:54.181Z,100763.38
2023-05-10T04:12:20.924Z,100760.31
2023-05-10T04:14:47.470Z,100763.63
2023-05-10T04:17:14.036Z,100758.84
2023-05-10T04:19:40.607Z,100759.47
2023-05-10T04:22:07.211Z,100754.19
2023-05-10T04:24:33.656Z,100763.50
2023-05-10T04:27:00.167Z,100766.31
2023-05-10T04:29:27.627Z,100761.91
2023-05-10T04:31:54.458Z,100755.03
2023-05-10T04:34:21.856Z,100768.50
2023-05-10T04:36:48.326Z,100780.00
2023-05-10T04:39:14.836Z,100767.88
2023-05-10T04:41:41.342Z,100768.13
2023-05-10T04:44:07.824Z,100772.78
2023-05-10T04:46:34.316Z,100781.84
2023-05-10T04:49:00.769Z,100771.72
2023-05-10T04:51:27.280Z,100772.84
2023-05-10T04:54:05.391Z,100770.00
2023-05-10T04:56:33.233Z,100776.09
2023-05-10T04:58:59.788Z,100772.75
2023-05-10T05:01:26.318Z,100762.34
2023-05-10T05:03:54.189Z,100767.22
2023-05-10T05:06:22.003Z,100764.94
2023-05-10T05:08:50.349Z,100769.09
2023-05-10T05:11:17.406Z,100778.84
2023-05-10T05:13:44.255Z,100771.59
2023-05-10T05:16:11.843Z,100772.53
2023-05-10T05:18:38.429Z,100770.53
2023-05-10T05:21:14.686Z,100777.13
2023-05-10T05:23:41.332Z,100773.09
2023-05-10T05:26:07.848Z,100778.44
2023-05-10T05:28:38.032Z,100780.91
2023-05-10T05:31:13.447Z,100769.00
2023-05-10T05:33:40.007Z,100770.72
2023-05-10T05:36:06.929Z,100777.31
2023-05-10T05:38:33.600Z,100774.19
2023-05-10T05:41:00.083Z,100762.47
2023-05-10T05:43:26.652Z,100768.50
2023-05-10T05:45:54.792Z,100773.06
2023-05-10T05:48:21.663Z,100775.16
2023-05-10T05:50:48.273Z,100764.63
2023-05-10T05:53:14.837Z,100762.41
2023-05-10T05:55:41.423Z,100764.75
2023-05-10T05:58:08.023Z,100771.00
2023-05-10T06:00:34.676Z,100773.28
2023-05-10T06:03:01.359Z,100765.13
2023-05-10T06:05:27.919Z,100771.31
2023-05-10T06:07:54.461Z,100766.63
2023-05-10T06:10:20.904Z,100768.41
2023-05-10T06:12:47.490Z,100777.97
2023-05-10T06:15:14.200Z,100771.78
2023-05-10T06:17:41.340Z,100778.31
2023-05-10T06:20:08.602Z,100770.53
2023-05-10T06:22:35.117Z,100777.56
2023-05-10T06:25:02.092Z,100779.66
2023-05-10T06:27:28.762Z,100770.69
2023-05-10T06:30:02.125Z,100768.06
2023-05-10T06:32:36.177Z,100770.78
2023-05-10T06:35:03.175Z,100772.84
2023-05-10T06:37:29.654Z,100764.94
2023-05-10T06:39:56.299Z,100770.72
2023-05-10T06:42:22.852Z,100766.44
2023-05-10T06:44:49.306Z,100767.63
2023-05-10T06:47:15.811Z,100767.63
2023-05-10T06:49:42.247Z,100759.06
2023-05-10T06:52:08.736Z,100771.88
2023-05-10T06:54:35.255Z,100759.03
2023-05-10T06:57:03.586Z,100767.16
2023-05-10T06:59:30.601Z,100770.16
2023-05-10T07:01:57.121Z,100762.53
2023-05-10T07:04:23.616Z,100757.34
2023-05-10T07:06:50.710Z,100766.28
2023-05-10T07:09:17.214Z,100767.31
2023-05-10T07:11:43.752Z,100760.75
2023-05-10T07:14:10.525Z,100764.72
2023-05-10T07:16:37.255Z,100761.81
2023-05-10T07:19:03.766Z,100754.31
2023-05-10T07:21:30.297Z,100751.06
2023-05-10T07:23:56.979Z,100756.84
2023-05-10T07:26:23.501Z,100744.06
2023-05-10T07:28:49.943Z,100761.72
2023-05-10T07:31:16.527Z,100758.34
2023-05-10T07:33:43.130Z,100747.06
2023-05-10T07:36:09.621Z,100755.06
2023-05-10T07:38:37.555Z,100755.44
2023-05-10T07:41:05.916Z,100757.50
2023-05-10T07:43:32.521Z,100760.91
2023-05-10T07:46:00.685Z,100765.63
2023-05-10T07:48:27.328Z,100761.59
2023-05-10T07:50:53.832Z,100758.38
2023-05-10T07:53:20.475Z,100747.38
2023-05-10T07:55:51.574Z,100759.50
2023-05-10T07:58:18.295Z,100754.44
2023-05-10T08:00:44.823Z,100754.06
2023-05-10T08:03:11.636Z,100759.88
2023-05-10T08:05:38.226Z,100757.53
2023-05-10T08:08:04.850Z,100751.94
2023-05-10T08:10:31.352Z,100727.19
2023-05-10T08:12:59.424Z,100748.81
2023-05-10T08:15:26.502Z,100747.47
2023-05-10T08:17:53.354Z,100745.06
2023-05-10T08:20:20.040Z,100736.38
2023-05-10T08:22:47.007Z,100736.56
2023-05-10T08:25:13.709Z,100736.94
2023-05-10T08:27:40.505Z,100741.75
2023-05-10T08:30:07.725Z,100740.28
2023-05-10T08:32:35.905Z,100733.91
2023-05-10T08:35:02.457Z,100740.03
2023-05-10T08:37:31.029Z,100740.47
2023-05-10T08:39:57.558Z,100746.47
2023-05-10T08:42:27.090Z,100742.81
2023-05-10T08:44:54.925Z,100744.03
2023-05-10T08:47:21.822Z,100750.47
2023-05-10T08:49:51.924Z,100748.50
2023-05-10T08:52:19.489Z,100748.97
2023-05-10T08:54:45.982Z,100740.75
2023-05-10T08:57:12.586Z,100741.97
2023-05-10T08:59:40.620Z,100745.97
2023-05-10T09:02:07.357Z,100739.75
2023-05-10T09:04:33.901Z,100737.81
2023-05-10T09:07:00.606Z,100749.06
2023-05-10T09:09:28.258Z,100727.16
2023-05-10T09:11:55.228Z,100721.84
2023-05-10T09:14:21.830Z,100717.28
2023-05-10T09:16:48.476Z,100725.50
2023-05-10T09:19:15.908Z,100731.69
2023-05-10T09:21:42.432Z,100717.25
2023-05-10T09:24:09.545Z,100720.28
2023-05-10T09:26:37.232Z,100712.66
2023-05-10T09:29:04.019Z,100706.81
2023-05-10T09:31:55.618Z,100731.16
2023-05-10T09:34:33.616Z,100720.56
2023-05-10T09:37:02.382Z,100726.25
2023-05-10T09:39:33.297Z,100718.38
2023-05-10T09:42:07.340Z,100716.03
2023-05-10T09:44:34.602Z,100716.59
2023-05-10T09:47:02.219Z,100714.41
2023-05-10T09:49:28.961Z,100713.34
2023-05-10T09:52:02.382Z,100703.75
2023-05-10T09:54:28.900Z,100708.75
2023-05-10T09:56:55.582Z,100696.06
2023-05-10T09:59:22.137Z,100707.00
2023-05-10T10:01:54.742Z,100705.31
2023-05-10T10:04:22.405Z,100702.50
2023-05-10T10:06:59.613Z,100710.81
2023-05-10T10:09:26.505Z,100704.50
2023-05-10T10:11:53.119Z,100700.16
2023-05-10T10:14:19.933Z,100699.63
2023-05-10T10:16:55.678Z,100690.69
2023-05-10T10:19:34.301Z,100696.03
2023-05-10T10:22:01.456Z,100676.69
2023-05-10T10:24:27.924Z,100681.75
2023-05-10T10:26:56.592Z,100680.50
2023-05-10T10:29:42.288Z,100674.84
2023-05-10T10:32:21.825Z,100684.50
2023-05-10T10:34:48.748Z,100671.88
2023-05-10T10:37:15.295Z,100674.34
2023-05-10T10:39:41.998Z,100659.94
2023-05-10T10:42:08.541Z,100658.94
2023-05-10T10:44:41.461Z,100680.69
2023-05-10T10:47:10.267Z,100666.53
2023-05-10T10:49:42.904Z,100661.13
2023-05-10T10:52:35.216Z,100664.81
2023-05-10T10:55:04.869Z,100666.09
2023-05-10T10:57:49.474Z,100672.53
2023-05-10T11:00:30.011Z,100662.69
2023-05-10T11:03:19.706Z,100661.50
2023-05-10T11:05:50.049Z,100660.63
2023-05-10T11:08:22.887Z,100647.75
2023-05-10T11:10:54.767Z,100653.69
2023-05-10T11:13:41.961Z,100650.97
2023-05-10T11:16:21.388Z,100653.56
2023-05-10T11:19:04.262Z,100644.78
2023-05-10T11:21:31.946Z,100655.53
2023-05-10T11:24:00.152Z,100636.34
2023-05-10T11:26:31.815Z,100642.16
2023-05-10T11:29:00.089Z,100648.69
2023-05-10T11:31:27.999Z,100639.56
2023-05-10T11:33:56.411Z,100641.91
2023-05-10T11:36:26.878Z,100648.66
2023-05-10T11:38:53.526Z,100643.59
2023-05-10T11:41:22.755Z,100644.34
2023-05-10T11:43:51.623Z,100630.19
2023-05-10T11:46:21.395Z,100649.59
2023-05-10T11:48:49.499Z,100634.69
2023-05-10T11:51:16.194Z,100634.13
2023-05-10T11:53:42.647Z,100628.22
2023-05-10T11:56:10.359Z,100632.19
2023-05-10T11:58:37.947Z,100627.56
2023-05-10T12:01:06.029Z,100622.09
2023-05-10T12:03:33.357Z,100632.84
2023-05-10T12:06:00.748Z,100637.81
2023-05-10T12:08:28.980Z,100635.03
2023-05-10T12:11:06.011Z,100635.53
2023-05-10T12:13:32.620Z,100637.81
2023-05-10T12:15:59.665Z,100636.84
2023-05-10T12:18:26.515Z,100625.22
2023-05-10T12:20:54.717Z,100625.97
2023-05-10T12:23:21.853Z,100632.13
2023-05-10T12:25:48.330Z,100627.03
2023-05-10T12:28:14.789Z,100629.31
2023-05-10T12:30:41.321Z,100626.75
2023-05-10T12:33:14.416Z,100625.53
2023-05-10T12:35:51.051Z,100627.78
2023-05-10T12:38:38.825Z,100623.63
2023-05-10T12:41:10.137Z,100625.81
2023-05-10T12:43:37.008Z,100612.59
2023-05-10T12:46:11.785Z,100630.59
2023-05-10T12:48:39.055Z,100626.72
2023-05-10T12:51:06.024Z,100617.47
2023-05-10T12:53:32.612Z,100621.47
2023-05-10T12:55:59.083Z,100611.91
2023-05-10T12:58:35.047Z,100605.69
2023-05-10T13:01:03.022Z,100617.84
2023-05-10T13:03:29.648Z,100598.38
2023-05-10T13:05:56.221Z,100597.66
2023-05-10T13:08:22.718Z,100596.09
2023-05-10T13:10:49.662Z,100606.44
2023-05-10T13:13:16.826Z,100596.31
2023-05-10T13:15:43.324Z,100597.59
2023-05-10T13:18:09.855Z,100602.72
2023-05-10T13:20:36.677Z,100587.31
2023-05-10T13:23:03.681Z,100600.53
2023-05-10T13:25:30.950Z,100605.69
2023-05-10T13:27:57.587Z,100593.59
2023-05-10T13:30:24.957Z,100581.16
2023-05-10T13:32:51.585Z,100601.03
2023-05-10T13:35:18.159Z,100603.41
2023-05-10T13:37:44.936Z,100582.94
2023-05-10T13:40:11.660Z,100586.94
2023-05-10T13:42:38.503Z,100589.31
2023-05-10T13:45:05.695Z,100589.81
2023-05-10T13:47:32.244Z,100593.34
2023-05-10T13:49:59.315Z,100592.09
2023-05-10T13:52:26.156Z,100580.47
2023-05-10T13:54:53.244Z,100584.25
2023-05-10T13:57:19.827Z,100585.59
2023-05-10T13:59:46.478Z,100582.66
2023-05-10T14:02:14.211Z,100579.13
2023-05-10T14:04:40.872Z,100579.97
2023-05-10T14:07:07.577Z,100570.88
2023-05-10T14:09:34.258Z,100567.06
2023-05-10T14:12:00.837Z,100574.03
2023-05-10T14:14:27.571Z,100561.72
2023-05-10T14:16:54.219Z,100578.66
2023-05-10T14:19:20.842Z,100576.66
2023-05-10T14:21:47.490Z,100572.94
2023-05-10T14:24:14.046Z,100574.91
2023-05-10T14:26:40.618Z,100560.84
2023-05-10T14:29:07.700Z,100565.44
2023-05-10T14:31:35.784Z,100574.50
2023-05-10T14:34:02.347Z,100565.34
2023-05-10T14:36:30.038Z,100564.66
2023-05-10T14:38:56.616Z,100562.97
2023-05-10T14:41:23.902Z,100553.34
2023-05-10T14:43:50.393Z,100567.31
2023-05-10T14:46:17.064Z,100567.72
2023-05-10T14:48:43.650Z,100570.09
2023-05-10T14:51:10.148Z,100565.47
2023-05-10T14:53:36.792Z,100564.78
2023-05-10T14:56:03.960Z,100569.78
2023-05-10T14:58:33.990Z,100564.22
2023-05-10T15:01:01.269Z,100572.06
2023-05-10T15:03:28.609Z,100561.47
2023-05-10T15:05:57.127Z,100556.81
2023-05-10T15:08:24.762Z,100557.81
2023-05-10T15:10:52.076Z,100553.88
2023-05-10T15:13:18.973Z,100556.88
2023-05-10T15:15:45.707Z,100553.50
2023-05-10T15:18:12.490Z,100561.41
2023-05-10T15:20:39.098Z,100550.81
2023-05-10T15:23:05.647Z,100539.34
2023-05-10T15:25:32.207Z,100571.50
2023-05-10T15:27:58.846Z,100549.13
2023-05-10T15:30:25.396Z,100554.44
2023-05-10T15:32:52.002Z,100548.53
2023-05-10T15:35:18.984Z,100547.63
2023-05-10T15:37:47.339Z,100538.81
2023-05-10T15:40:13.957Z,100544.06
2023-05-10T15:42:40.518Z,100538.38
2023-05-10T15:45:07.594Z,100537.34
2023-05-10T15:47:34.194Z,100534.34
2023-05-10T15:50:01.184Z,100544.72
2023-05-10T15:52:28.172Z,100534.75
2023-05-10T15:54:54.784Z,100550.00
2023-05-10T15:57:21.390Z,100547.16
2023-05-10T15:59:47.866Z,100535.09
2023-05-10T16:02:14.625Z,100540.84
2023-05-10T16:04:41.480Z,100549.03
2023-05-10T16:07:07.955Z,100546.28
2023-05-10T16:09:34.406Z,100536.25
2023-05-10T16:12:02.044Z,100541.25
2023-05-10T16:14:28.778Z,100540.97
2023-05-10T16:16:55.354Z,100545.59
2023-05-10T16:19:22.533Z,100547.00
2023-05-10T16:21:49.545Z,100542.84
2023-05-10T16:24:16.041Z,100542.16
2023-05-10T16:26:42.602Z,100544.88
2023-05-10T16:29:09.216Z,100551.66
2023-05-10T16:31:35.820Z,100546.06
2023-05-10T16:34:02.391Z,100550.59
2023-05-10T16:36:29.622Z,100553.63
2023-05-10T16:38:56.553Z,100544.53
2023-05-10T16:41:23.071Z,100551.25
2023-05-10T16:43:50.147Z,100560.13
2023-05-10T16:46:16.771Z,100556.53
2023-05-10T16:48:43.362Z,100559.72
2023-05-10T16:51:09.922Z,100563.41
2023-05-10T16:53:36.611Z,100565.00
2023-05-10T16:56:03.570Z,100563.63
2023-05-10T16:58:30.053Z,100558.00
2023-05-10T17:00:56.593Z,100556.59
2023-05-10T17:03:23.437Z,100564.28
2023-05-10T17:05:50.100Z,100565.03
2023-05-10T17:08:16.687Z,100567.41
2023-05-10T17:10:43.144Z,100566.34
2023-05-10T17:13:10.585Z,100571.41
2023-05-10T17:15:38.204Z,100576.63
2023-05-10T17:18:05.189Z,100561.81
2023-05-10T17:20:31.719Z,100580.56
2023-05-10T17:22:58.174Z,100578.81
2023-05-10T17:25:24.887Z,100573.56
2023-05-10T17:27:51.380Z,100575.69
2023-05-10T17:30:22.587Z,100573.66
2023-05-10T17:32:49.401Z,100583.41
2023-05-10T17:35:16.435Z,100580.88
2023-05-10T17:37:44.122Z,100572.88
2023-05-10T17:40:11.466Z,100583.31
2023-05-10T17:42:38.010Z,100584.13
2023-05-10T17:45:04.844Z,100597.31
2023-05-10T17:47:31.625Z,100592.56
2023-05-10T17:49:58.149Z,100593.94
2023-05-10T17:52:24.796Z,100600.44
2023-05-10T17:54:51.505Z,100596.69
2023-05-10T17:57:18.402Z,100595.69
2023-05-10T17:59:44.906Z,100602.53
2023-05-10T18:02:11.368Z,100600.31
2023-05-10T18:04:40.245Z,100604.56
2023-05-10T18:07:07.940Z,100605.63
2023-05-10T18:09:34.534Z,100609.88
2023-05-10T18:12:03.902Z,100608.69
2023-05-10T18:14:39.741Z,100608.69
2023-05-10T18:17:07.737Z,100605.25
2023-05-10T18:19:34.518Z,100615.13
2023-05-10T18:22:01.048Z,100613.44
2023-05-10T18:24:38.474Z,100614.47
2023-05-10T18:27:07.595Z,100623.47
2023-05-10T18:29:35.195Z,100627.19
2023-05-10T18:32:01.748Z,100629.25
2023-05-10T18:34:28.759Z,100631.78
2023-05-10T18:36:55.274Z,100639.44
2023-05-10T18:39:21.810Z,100633.47
2023-05-10T18:41:48.334Z,100647.75
2023-05-10T18:44:14.874Z,100646.03
2023-05-10T18:46:42.553Z,100650.13
2023-05-10T18:49:09.239Z,100652.66
2023-05-10T18:51:36.054Z,100655.38
2023-05-10T18:54:02.560Z,100659.13
2023-05-10T18:56:29.014Z,100650.91
2023-05-10T18:58:56.120Z,100648.50
2023-05-10T19:01:22.672Z,100651.06
2023-05-10T19:03:49.194Z,100657.88
2023-05-10T19:06:16.186Z,100647.81
2023-05-10T19:08:42.730Z,100644.88
2023-05-10T19:11:09.231Z,100657.81
2023-05-10T19:13:35.816Z,100649.97
2023-05-10T19:16:06.988Z,100653.34
2023-05-10T19:18:34.092Z,100655.91
2023-05-10T19:21:04.579Z,100652.34
2023-05-10T19:23:34.666Z,100651.91
2023-05-10T19:26:01.552Z,100642.91
2023-05-10T19:28:28.347Z,100656.81
2023-05-10T19:30:55.084Z,100645.88
2023-05-10T19:33:21.554Z,100650.19
2023-05-10T19:35:51.339Z,100658.16
2023-05-10T19:38:21.405Z,100656.09
2023-05-10T19:40:50.298Z,100667.28
2023-05-10T19:43:17.364Z,100659.25
2023-05-10T19:45:44.024Z,100658.91
2023-05-10T19:48:11.077Z,100669.06
2023-05-10T19:50:38.551Z,100661.09
2023-05-10T19:53:05.084Z,100665.34
2023-05-10T19:55:32.697Z,100662.22
2023-05-10T19:58:02.371Z,100665.28
2023-05-10T20:00:29.048Z,100665.94
2023-05-10T20:02:56.070Z,100664.16
2023-05-10T20:05:22.851Z,100671.97
2023-05-10T20:07:49.589Z,100669.44
2023-05-10T20:10:16.998Z,100663.78
2023-05-10T20:12:51.659Z,100670.00
2023-05-10T20:15:20.104Z,100670.44
2023-05-10T20:17:47.660Z,100676.84
2023-05-10T20:20:15.994Z,100666.44
2023-05-10T20:22:46.106Z,100673.66
2023-05-10T20:25:13.165Z,100667.00
2023-05-10T20:27:39.714Z,100670.84
2023-05-10T20:30:07.012Z,100676.63
2023-05-10T20:32:34.597Z,100672.50
2023-05-10T20:35:01.533Z,100672.41
2023-05-10T20:37:28.225Z,100676.47
2023-05-10T20:39:55.312Z,100670.47
2023-05-10T20:42:21.978Z,100672.66
2023-05-10T20:44:48.560Z,100682.09
2023-05-10T20:47:15.446Z,100679.00
2023-05-10T20:49:42.683Z,100686.22
2023-05-10T20:52:09.257Z,100685.13
2023-05-10T20:54:35.787Z,100689.22
2023-05-10T20:57:02.256Z,100686.19
2023-05-10T20:59:29.257Z,100686.63
2023-05-10T21:01:56.972Z,100693.22
2023-05-10T21:04:24.575Z,100698.09
2023-05-10T21:06:51.621Z,100690.41
2023-05-10T21:09:18.262Z,100696.53
2023-05-10T21:11:44.930Z,100687.22
2023-05-10T21:14:11.403Z,100695.69
2023-05-10T21:16:38.117Z,100695.59
2023-05-10T21:19:07.017Z,100703.13
2023-05-10T21:21:33.806Z,100699.44
2023-05-10T21:24:00.258Z,100698.34
2023-05-10T21:26:26.809Z,100711.91
2023-05-10T21:28:53.397Z,100702.94
2023-05-10T21:31:20.264Z,100703.25
2023-05-10T21:33:46.815Z,100700.97
2023-05-10T21:36:13.797Z,100699.09
2023-05-10T21:38:40.917Z,100702.69
2023-05-10T21:41:08.034Z,100698.13
2023-05-10T21:43:34.798Z,100694.44
2023-05-10T21:46:01.704Z,100704.84
2023-05-10T21:48:28.250Z,100709.00
2023-05-10T21:50:54.777Z,100712.28
2023-05-10T21:53:22.282Z,100705.75
2023-05-10T21:55:48.896Z,100709.88
2023-05-10T21:58:15.474Z,100711.88
2023-05-10T22:00:41.969Z,100711.88
2023-05-10T22:03:08.620Z,100712.31
2023-05-10T22:05:35.339Z,100712.44
2023-05-10T22:08:01.789Z,100710.75
2023-05-10T22:10:28.380Z,100709.75
2023-05-10T22:12:54.854Z,100721.16
2023-05-10T22:15:21.424Z,100719.47
2023-05-10T22:17:47.973Z,100726.88
2023-05-10T22:20:14.570Z,100723.44
2023-05-10T22:22:41.074Z,100725.59
2023-05-10T22:25:07.977Z,100720.47
2023-05-10T22:27:34.906Z,100725.00
2023-05-10T22:30:01.633Z,100733.72
2023-05-10T22:32:28.387Z,100732.41
2023-05-10T22:34:55.018Z,100732.72
2023-05-10T22:37:21.485Z,100731.72
2023-05-10T22:39:48.668Z,100737.00
2023-05-10T22:42:15.624Z,100734.69
2023-05-10T22:44:42.811Z,100746.25
2023-05-10T22:47:09.404Z,100747.66
2023-05-10T22:49:36.121Z,100738.56
2023-05-10T22:52:02.597Z,100751.63
2023-05-10T22:54:29.051Z,100744.97
2023-05-10T22:56:56.474Z,100750.38
2023-05-10T22:59:23.207Z,100751.94
2023-05-10T23:01:49.705Z,100740.97
2023-05-10T23:04:16.210Z,100747.66
2023-05-10T23:06:42.714Z,100736.69
2023-05-10T23:09:09.794Z,100752.34
2023-05-10T23:11:36.522Z,100750.88
2023-05-10T23:14:03.148Z,100751.03
2023-05-10T23:16:30.569Z,100749.31
2023-05-10T23:18:58.792Z,100754.16
2023-05-10T23:21:25.386Z,100749.72
2023-05-10T23:23:52.457Z,100745.56
2023-05-10T23:26:19.485Z,100754.69
2023-05-10T23:28:45.961Z,100745.97
2023-05-10T23:31:12.409Z,100745.09
2023-05-10T23:33:38.935Z,100740.97
2023-05-10T23:36:05.734Z,100752.53
2023-05-10T23:38:32.242Z,100751.66
2023-05-10T23:40:58.786Z,100748.94
2023-05-10T23:43:25.441Z,100748.53
2023-05-10T23:45:53.964Z,100756.38
2023-05-10T23:48:20.602Z,100748.38
2023-05-10T23:50:47.231Z,100753.09
2023-05-10T23:53:14.224Z,100756.47
2023-05-10T23:55:42.534Z,100753.78
2023-05-10T23:58:10.102Z,100753.38
